sensor_id;sensor_type;location;lat;lon;timestamp;pressure;altitude;pressure_sealevel;temperature;humidity
13314;BME280;6725;48.112;11.604;2023-06-19T00:01:58;95030.63;;;20.15;100.00
13314;BME280;6725;48.112;11.604;2023-06-19T00:04:24;95032.34;;;20.12;100.00
13314;BME280;6725;48.112;11.604;2023-06-19T00:06:50;95037.81;;;20.21;100.00
13314;BME280;6725;48.112;11.604;2023-06-19T00:09:16;95039.00;;;20.29;100.00
13314;BME280;6725;48.112;11.604;2023-06-19T00:11:42;95031.56;;;20.35;100.00
13314;BME280;6725;48.112;11.604;2023-06-19T00:14:07;95033.16;;;20.27;100.00
13314;BME280;6725;48.112;11.604;2023-06-19T00:16:33;95027.69;;;20.18;100.00
13314;BME280;6725;48.112;11.604;2023-06-19T00:18:58;95025.22;;;20.20;100.00
13314;BME280;6725;48.112;11.604;2023-06-19T00:21:24;95032.75;;;20.20;100.00
13314;BME280;6725;48.112;11.604;2023-06-19T00:23:51;95029.34;;;20.25;100.00
13314;BME280;6725;48.112;11.604;2023-06-19T00:28:44;95024.38;;;20.29;100.00
13314;BME280;6725;48.112;11.604;2023-06-19T00:34:32;95024.31;;;20.14;100.00
13314;BME280;6725;48.112;11.604;2023-06-19T00:36:58;95020.31;;;20.15;100.00
13314;BME280;6725;48.112;11.604;2023-06-19T00:39:23;95024.91;;;20.18;100.00
13314;BME280;6725;48.112;11.604;2023-06-19T00:41:51;95021.50;;;20.23;100.00
13314;BME280;6725;48.112;11.604;2023-06-19T00:44:17;95022.06;;;20.27;100.00
13314;BME280;6725;48.112;11.604;2023-06-19T00:46:42;95023.22;;;20.35;100.00
13314;BME280;6725;48.112;11.604;2023-06-19T00:49:08;95024.13;;;20.41;100.00
13314;BME280;6725;48.112;11.604;2023-06-19T00:51:34;95023.63;;;20.43;100.00
13314;BME280;6725;48.112;11.604;2023-06-19T00:53:59;95022.88;;;20.42;100.00
13314;BME280;6725;48.112;11.604;2023-06-19T00:56:25;95021.63;;;20.43;100.00
13314;BME280;6725;48.112;11.604;2023-06-19T00:58:52;95026.88;;;20.41;100.00
13314;BME280;6725;48.112;11.604;2023-06-19T01:01:19;95034.75;;;20.43;100.00
13314;BME280;6725;48.112;11.604;2023-06-19T01:03:44;95033.00;;;20.45;100.00
13314;BME280;6725;48.112;11.604;2023-06-19T01:06:13;95039.50;;;20.42;100.00
13314;BME280;6725;48.112;11.604;2023-06-19T01:11:19;95027.16;;;20.43;100.00
13314;BME280;6725;48.112;11.604;2023-06-19T01:13:50;95038.38;;;20.49;100.00
13314;BME280;6725;48.112;11.604;2023-06-19T01:16:19;95036.06;;;20.47;100.00
13314;BME280;6725;48.112;11.604;2023-06-19T01:18:46;95035.13;;;20.50;100.00
13314;BME280;6725;48.112;11.604;2023-06-19T01:21:13;95035.13;;;20.50;100.00
13314;BME280;6725;48.112;11.604;2023-06-19T01:23:40;95025.28;;;20.49;100.00
13314;BME280;6725;48.112;11.604;2023-06-19T01:26:06;95030.72;;;20.58;100.00
13314;BME280;6725;48.112;11.604;2023-06-19T01:28:33;95039.72;;;20.53;100.00
13314;BME280;6725;48.112;11.604;2023-06-19T01:31:00;95036.28;;;20.58;100.00
13314;BME280;6725;48.112;11.604;2023-06-19T01:33:28;95034.09;;;20.62;100.00
13314;BME280;6725;48.112;11.604;2023-06-19T01:35:56;95031.91;;;20.66;100.00
13314;BME280;6725;48.112;11.604;2023-06-19T01:38:24;95035.91;;;20.65;100.00
13314;BME280;6725;48.112;11.604;2023-06-19T01:43:16;95042.13;;;20.60;100.00
13314;BME280;6725;48.112;11.604;2023-06-19T01:45:43;95037.34;;;20.61;100.00
13314;BME280;6725;48.112;11.604;2023-06-19T01:48:09;95042.44;;;20.62;100.00
13314;BME280;6725;48.112;11.604;2023-06-19T01:50:34;95040.69;;;20.65;100.00
13314;BME280;6725;48.112;11.604;2023-06-19T01:52:59;95035.91;;;20.65;100.00
13314;BME280;6725;48.112;11.604;2023-06-19T01:55:25;95031.59;;;20.64;100.00
13314;BME280;6725;48.112;11.604;2023-06-19T01:57:50;95035.31;;;20.61;100.00
13314;BME280;6725;48.112;11.604;2023-06-19T02:00:16;95047.38;;;20.58;100.00
13314;BME280;6725;48.112;11.604;2023-06-19T02:02:42;95031.97;;;20.57;100.00
13314;BME280;6725;48.112;11.604;2023-06-19T02:05:07;95034.75;;;20.57;100.00
13314;BME280;6725;48.112;11.604;2023-06-19T02:07:33;95038.78;;;20.56;100.00
13314;BME280;6725;48.112;11.604;2023-06-19T02:09:58;95039.91;;;20.50;100.00
13314;BME280;6725;48.112;11.604;2023-06-19T02:17:46;95039.63;;;20.48;100.00
13314;BME280;6725;48.112;11.604;2023-06-19T02:20:11;95039.44;;;20.51;100.00
13314;BME280;6725;48.112;11.604;2023-06-19T02:25:20;95045.00;;;20.51;100.00
13314;BME280;6725;48.112;11.604;2023-06-19T02:27:46;95037.72;;;20.54;100.00
13314;BME280;6725;48.112;11.604;2023-06-19T02:30:11;95034.75;;;20.57;100.00
13314;BME280;6725;48.112;11.604;2023-06-19T02:32:37;95039.81;;;20.59;100.00
13314;BME280;6725;48.112;11.604;2023-06-19T02:35:05;95047.69;;;20.60;100.00
13314;BME280;6725;48.112;11.604;2023-06-19T02:37:31;95040.13;;;20.61;100.00
13314;BME280;6725;48.112;11.604;2023-06-19T02:39:56;95040.88;;;20.61;100.00
13314;BME280;6725;48.112;11.604;2023-06-19T02:42:22;95035.31;;;20.61;100.00
13314;BME280;6725;48.112;11.604;2023-06-19T02:44:47;95034.28;;;20.59;100.00
13314;BME280;6725;48.112;11.604;2023-06-19T02:47:13;95040.03;;;20.55;100.00
13314;BME280;6725;48.112;11.604;2023-06-19T02:49:38;95048.03;;;20.53;100.00
13314;BME280;6725;48.112;11.604;2023-06-19T02:52:04;95049.66;;;20.45;100.00
13314;BME280;6725;48.112;11.604;2023-06-19T02:54:29;95039.72;;;20.39;100.00
13314;BME280;6725;48.112;11.604;2023-06-19T02:56:55;95047.31;;;20.29;100.00
13314;BME280;6725;48.112;11.604;2023-06-19T02:59:20;95044.63;;;20.20;100.00
13314;BME280;6725;48.112;11.604;2023-06-19T03:01:45;95049.00;;;20.12;100.00
13314;BME280;6725;48.112;11.604;2023-06-19T03:04:11;95040.97;;;20.14;100.00
13314;BME280;6725;48.112;11.604;2023-06-19T03:06:37;95038.50;;;20.16;100.00
13314;BME280;6725;48.112;11.604;2023-06-19T03:09:05;95041.72;;;20.15;100.00
13314;BME280;6725;48.112;11.604;2023-06-19T03:11:37;95044.19;;;20.13;100.00
13314;BME280;6725;48.112;11.604;2023-06-19T03:14:03;95038.22;;;20.05;100.00
13314;BME280;6725;48.112;11.604;2023-06-19T03:16:32;95039.47;;;20.04;100.00
13314;BME280;6725;48.112;11.604;2023-06-19T03:18:58;95043.00;;;20.05;100.00
13314;BME280;6725;48.112;11.604;2023-06-19T03:21:23;95053.94;;;20.08;100.00
13314;BME280;6725;48.112;11.604;2023-06-19T03:29:37;95063.72;;;20.18;100.00
13314;BME280;6725;48.112;11.604;2023-06-19T03:32:03;95061.25;;;20.20;100.00
13314;BME280;6725;48.112;11.604;2023-06-19T03:39:24;95070.75;;;20.28;100.00
13314;BME280;6725;48.112;11.604;2023-06-19T03:41:50;95078.59;;;20.30;100.00
13314;BME280;6725;48.112;11.604;2023-06-19T03:44:15;95075.34;;;20.31;100.00
13314;BME280;6725;48.112;11.604;2023-06-19T03:46:40;95081.50;;;20.35;100.00
13314;BME280;6725;48.112;11.604;2023-06-19T03:49:06;95081.78;;;20.37;100.00
13314;BME280;6725;48.112;11.604;2023-06-19T03:51:32;95092.41;;;20.39;100.00
13314;BME280;6725;48.112;11.604;2023-06-19T03:53:57;95091.63;;;20.38;100.00
13314;BME280;6725;48.112;11.604;2023-06-19T03:56:23;95091.91;;;20.40;100.00
13314;BME280;6725;48.112;11.604;2023-06-19T03:58:48;95093.47;;;20.41;100.00
13314;BME280;6725;48.112;11.604;2023-06-19T04:01:14;95097.31;;;20.44;100.00
13314;BME280;6725;48.112;11.604;2023-06-19T04:03:39;95099.59;;;20.45;100.00
13314;BME280;6725;48.112;11.604;2023-06-19T04:06:04;95102.66;;;20.47;100.00
13314;BME280;6725;48.112;11.604;2023-06-19T04:08:30;95104.22;;;20.48;100.00
13314;BME280;6725;48.112;11.604;2023-06-19T04:10:55;95106.03;;;20.51;100.00
13314;BME280;6725;48.112;11.604;2023-06-19T04:13:20;95105.28;;;20.51;100.00
13314;BME280;6725;48.112;11.604;2023-06-19T04:15:47;95103.28;;;20.51;100.00
13314;BME280;6725;48.112;11.604;2023-06-19T04:18:12;95103.28;;;20.51;100.00
13314;BME280;6725;48.112;11.604;2023-06-19T04:20:38;95110.47;;;20.58;100.00
13314;BME280;6725;48.112;11.604;2023-06-19T04:23:05;95118.59;;;20.61;100.00
13314;BME280;6725;48.112;11.604;2023-06-19T04:25:30;95117.63;;;20.64;100.00
13314;BME280;6725;48.112;11.604;2023-06-19T04:27:56;95122.25;;;20.67;100.00
13314;BME280;6725;48.112;11.604;2023-06-19T04:30:21;95118.69;;;20.67;100.00
13314;BME280;6725;48.112;11.604;2023-06-19T04:32:47;95130.84;;;20.69;100.00
13314;BME280;6725;48.112;11.604;2023-06-19T04:35:12;95126.06;;;20.70;100.00
13314;BME280;6725;48.112;11.604;2023-06-19T04:37:37;95121.00;;;20.68;100.00
13314;BME280;6725;48.112;11.604;2023-06-19T04:40:03;95130.28;;;20.65;100.00
13314;BME280;6725;48.112;11.604;2023-06-19T04:42:29;95126.28;;;20.66;100.00
13314;BME280;6725;48.112;11.604;2023-06-19T04:44:54;95130.09;;;20.69;100.00
13314;BME280;6725;48.112;11.604;2023-06-19T04:50:23;95134.50;;;20.75;100.00
13314;BME280;6725;48.112;11.604;2023-06-19T04:52:49;95148.69;;;20.77;100.00
13314;BME280;6725;48.112;11.604;2023-06-19T04:55:15;95152.53;;;20.80;100.00
13314;BME280;6725;48.112;11.604;2023-06-19T04:57:41;95165.94;;;20.81;100.00
13314;BME280;6725;48.112;11.604;2023-06-19T05:02:56;95169.00;;;20.83;100.00
13314;BME280;6725;48.112;11.604;2023-06-19T05:05:27;95165.94;;;20.81;100.00
13314;BME280;6725;48.112;11.604;2023-06-19T05:07:52;95173.59;;;20.86;100.00
13314;BME280;6725;48.112;11.604;2023-06-19T05:10:18;95178.34;;;20.95;100.00
13314;BME280;6725;48.112;11.604;2023-06-19T05:12:44;95168.69;;;21.05;100.00
13314;BME280;6725;48.112;11.604;2023-06-19T05:15:09;95181.72;;;21.13;100.00
13314;BME280;6725;48.112;11.604;2023-06-19T05:17:35;95185.69;;;21.21;100.00
13314;BME280;6725;48.112;11.604;2023-06-19T05:20:07;95184.31;;;21.31;100.00
13314;BME280;6725;48.112;11.604;2023-06-19T05:22:33;95186.72;;;21.38;100.00
13314;BME280;6725;48.112;11.604;2023-06-19T05:25:00;95190.19;;;21.48;100.00
13314;BME280;6725;48.112;11.604;2023-06-19T05:27:25;95176.13;;;21.51;100.00
13314;BME280;6725;48.112;11.604;2023-06-19T05:29:50;95186.84;;;21.58;100.00
13314;BME280;6725;48.112;11.604;2023-06-19T05:32:15;95182.91;;;21.65;100.00
13314;BME280;6725;48.112;11.604;2023-06-19T05:34:41;95190.41;;;21.73;100.00
13314;BME280;6725;48.112;11.604;2023-06-19T05:37:06;95193.09;;;21.82;100.00
13314;BME280;6725;48.112;11.604;2023-06-19T05:39:32;95201.03;;;21.89;100.00
13314;BME280;6725;48.112;11.604;2023-06-19T05:41:57;95196.91;;;21.99;100.00
13314;BME280;6725;48.112;11.604;2023-06-19T05:44:22;95200.00;;;22.01;100.00
13314;BME280;6725;48.112;11.604;2023-06-19T05:46:48;95215.69;;;22.04;100.00
13314;BME280;6725;48.112;11.604;2023-06-19T05:49:13;95208.13;;;22.05;100.00
13314;BME280;6725;48.112;11.604;2023-06-19T05:51:38;95215.31;;;22.11;100.00
13314;BME280;6725;48.112;11.604;2023-06-19T05:54:04;95223.47;;;22.15;100.00
13314;BME280;6725;48.112;11.604;2023-06-19T05:56:30;95223.94;;;22.13;100.00
13314;BME280;6725;48.112;11.604;2023-06-19T05:58:56;95227.00;;;22.15;100.00
13314;BME280;6725;48.112;11.604;2023-06-19T06:01:21;95224.22;;;22.15;100.00
13314;BME280;6725;48.112;11.604;2023-06-19T06:03:46;95223.56;;;22.20;100.00
13314;BME280;6725;48.112;11.604;2023-06-19T06:06:12;95231.91;;;22.20;100.00
13314;BME280;6725;48.112;11.604;2023-06-19T06:08:37;95228.16;;;22.23;100.00
13314;BME280;6725;48.112;11.604;2023-06-19T06:11:03;95234.00;;;22.25;100.00
13314;BME280;6725;48.112;11.604;2023-06-19T06:13:28;95232.06;;;22.31;100.00
13314;BME280;6725;48.112;11.604;2023-06-19T06:15:53;95232.41;;;22.39;100.00
13314;BME280;6725;48.112;11.604;2023-06-19T06:18:19;95232.44;;;22.54;100.00
13314;BME280;6725;48.112;11.604;2023-06-19T06:20:44;95234.59;;;22.64;100.00
13314;BME280;6725;48.112;11.604;2023-06-19T06:23:10;95235.28;;;22.79;100.00
13314;BME280;6725;48.112;11.604;2023-06-19T06:25:35;95239.25;;;22.93;100.00
13314;BME280;6725;48.112;11.604;2023-06-19T06:33:07;95248.84;;;23.46;100.00
13314;BME280;6725;48.112;11.604;2023-06-19T06:35:32;95239.09;;;23.62;100.00
13314;BME280;6725;48.112;11.604;2023-06-19T06:37:59;95239.09;;;23.62;100.00
13314;BME280;6725;48.112;11.604;2023-06-19T06:40:24;95247.13;;;23.80;100.00
13314;BME280;6725;48.112;11.604;2023-06-19T06:42:50;95253.69;;;23.97;100.00
13314;BME280;6725;48.112;11.604;2023-06-19T06:45:16;95252.09;;;24.21;100.00
13314;BME280;6725;48.112;11.604;2023-06-19T06:47:41;95263.03;;;24.56;100.00
13314;BME280;6725;48.112;11.604;2023-06-19T06:50:08;95272.59;;;25.17;100.00
13314;BME280;6725;48.112;11.604;2023-06-19T06:52:33;95270.59;;;25.98;100.00
13314;BME280;6725;48.112;11.604;2023-06-19T06:54:58;95279.78;;;26.43;100.00
13314;BME280;6725;48.112;11.604;2023-06-19T06:57:24;95270.63;;;26.81;100.00
13314;BME280;6725;48.112;11.604;2023-06-19T06:59:50;95275.66;;;27.15;100.00
13314;BME280;6725;48.112;11.604;2023-06-19T07:02:15;95272.50;;;27.46;97.76
13314;BME280;6725;48.112;11.604;2023-06-19T07:04:41;95285.50;;;27.49;96.00
13314;BME280;6725;48.112;11.604;2023-06-19T07:07:06;95276.53;;;27.56;94.81
13314;BME280;6725;48.112;11.604;2023-06-19T07:09:33;95283.47;;;27.50;95.83
13314;BME280;6725;48.112;11.604;2023-06-19T07:11:59;95283.22;;;27.42;97.24
13314;BME280;6725;48.112;11.604;2023-06-19T07:14:24;95286.81;;;27.37;98.16
13314;BME280;6725;48.112;11.604;2023-06-19T07:16:49;95280.75;;;27.11;100.00
13314;BME280;6725;48.112;11.604;2023-06-19T07:19:15;95290.44;;;27.21;100.00
13314;BME280;6725;48.112;11.604;2023-06-19T07:21:41;95290.31;;;27.54;98.48
13314;BME280;6725;48.112;11.604;2023-06-19T07:24:07;95279.84;;;28.77;87.01
13314;BME280;6725;48.112;11.604;2023-06-19T07:26:32;95282.63;;;30.15;74.80
13314;BME280;6725;48.112;11.604;2023-06-19T07:28:58;95284.41;;;30.50;69.30
13314;BME280;6725;48.112;11.604;2023-06-19T07:31:23;95285.00;;;31.06;67.31
13314;BME280;6725;48.112;11.604;2023-06-19T07:33:48;95291.19;;;32.22;61.77
13314;BME280;6725;48.112;11.604;2023-06-19T07:36:14;95289.19;;;31.83;61.40
13314;BME280;6725;48.112;11.604;2023-06-19T07:41:06;95288.69;;;30.38;68.62
13314;BME280;6725;48.112;11.604;2023-06-19T07:43:32;95282.16;;;30.30;70.46
13314;BME280;6725;48.112;11.604;2023-06-19T07:45:58;95286.53;;;31.20;66.27
13314;BME280;6725;48.112;11.604;2023-06-19T07:48:23;95290.41;;;30.91;66.86
13314;BME280;6725;48.112;11.604;2023-06-19T07:50:49;95289.84;;;30.79;68.13
13314;BME280;6725;48.112;11.604;2023-06-19T07:53:14;95289.78;;;31.24;64.83
13314;BME280;6725;48.112;11.604;2023-06-19T07:55:41;95294.69;;;32.02;61.37
13314;BME280;6725;48.112;11.604;2023-06-19T07:58:07;95290.69;;;32.44;58.13
13314;BME280;6725;48.112;11.604;2023-06-19T08:00:32;95295.47;;;32.49;57.98
13314;BME280;6725;48.112;11.604;2023-06-19T08:02:57;95286.03;;;33.56;53.49
13314;BME280;6725;48.112;11.604;2023-06-19T08:05:23;95286.16;;;34.73;48.96
13314;BME280;6725;48.112;11.604;2023-06-19T08:11:07;95297.34;;;35.61;45.35
13314;BME280;6725;48.112;11.604;2023-06-19T08:13:32;95296.97;;;35.42;46.21
13314;BME280;6725;48.112;11.604;2023-06-19T08:15:57;95303.22;;;35.18;45.58
13314;BME280;6725;48.112;11.604;2023-06-19T08:23:18;95311.94;;;35.20;43.52
13314;BME280;6725;48.112;11.604;2023-06-19T08:25:44;95314.44;;;34.00;48.20
13314;BME280;6725;48.112;11.604;2023-06-19T08:31:31;95312.72;;;32.58;56.14
13314;BME280;6725;48.112;11.604;2023-06-19T08:33:57;95299.34;;;32.12;57.36
13314;BME280;6725;48.112;11.604;2023-06-19T08:36:22;95304.84;;;31.84;60.19
13314;BME280;6725;48.112;11.604;2023-06-19T08:38:48;95299.88;;;30.93;63.02
13314;BME280;6725;48.112;11.604;2023-06-19T08:41:18;95301.81;;;31.43;62.18
13314;BME280;6725;48.112;11.604;2023-06-19T08:46:21;95292.44;;;33.57;55.30
13314;BME280;6725;48.112;11.604;2023-06-19T08:48:47;95292.53;;;34.58;50.73
13314;BME280;6725;48.112;11.604;2023-06-19T08:56:15;95306.56;;;36.06;43.37
13314;BME280;6725;48.112;11.604;2023-06-19T08:58:40;95298.31;;;35.26;45.88
13314;BME280;6725;48.112;11.604;2023-06-19T09:01:06;95293.75;;;35.23;46.09
13314;BME280;6725;48.112;11.604;2023-06-19T09:03:31;95293.69;;;35.98;44.50
13314;BME280;6725;48.112;11.604;2023-06-19T09:06:02;95288.66;;;35.14;46.01
13314;BME280;6725;48.112;11.604;2023-06-19T09:08:27;95283.81;;;35.99;43.71
13314;BME280;6725;48.112;11.604;2023-06-19T09:10:57;95283.38;;;36.10;44.00
13314;BME280;6725;48.112;11.604;2023-06-19T09:13:23;95271.94;;;35.63;46.18
13314;BME280;6725;48.112;11.604;2023-06-19T09:15:57;95275.94;;;35.45;45.93
13314;BME280;6725;48.112;11.604;2023-06-19T09:18:24;95283.59;;;34.47;46.92
13314;BME280;6725;48.112;11.604;2023-06-19T09:20:53;95285.38;;;33.78;48.46
13314;BME280;6725;48.112;11.604;2023-06-19T09:23:19;95278.56;;;33.46;48.79
13314;BME280;6725;48.112;11.604;2023-06-19T09:25:52;95283.44;;;34.02;46.88
13314;BME280;6725;48.112;11.604;2023-06-19T09:28:27;95291.34;;;34.39;45.98
13314;BME280;6725;48.112;11.604;2023-06-19T09:30:55;95290.63;;;33.39;47.82
13314;BME280;6725;48.112;11.604;2023-06-19T09:33:21;95281.22;;;33.44;48.51
13314;BME280;6725;48.112;11.604;2023-06-19T09:35:49;95272.72;;;33.44;49.33
13314;BME280;6725;48.112;11.604;2023-06-19T09:38:16;95280.69;;;32.63;50.79
13314;BME280;6725;48.112;11.604;2023-06-19T09:40:45;95274.06;;;32.81;50.85
13314;BME280;6725;48.112;11.604;2023-06-19T09:43:14;95266.97;;;34.00;50.00
13314;BME280;6725;48.112;11.604;2023-06-19T09:45:44;95269.09;;;34.65;46.67
13314;BME280;6725;48.112;11.604;2023-06-19T09:48:14;95258.75;;;34.25;48.08
13314;BME280;6725;48.112;11.604;2023-06-19T09:50:44;95269.91;;;34.96;46.76
13314;BME280;6725;48.112;11.604;2023-06-19T09:53:11;95274.38;;;34.61;47.55
13314;BME280;6725;48.112;11.604;2023-06-19T09:55:37;95263.63;;;34.90;47.57
13314;BME280;6725;48.112;11.604;2023-06-19T09:58:03;95267.81;;;34.96;46.62
13314;BME280;6725;48.112;11.604;2023-06-19T10:00:31;95271.00;;;34.78;46.28
13314;BME280;6725;48.112;11.604;2023-06-19T10:08:44;95268.38;;;35.17;47.48
13314;BME280;6725;48.112;11.604;2023-06-19T10:11:10;95257.34;;;35.66;47.39
13314;BME280;6725;48.112;11.604;2023-06-19T10:13:37;95258.31;;;35.24;47.53
13314;BME280;6725;48.112;11.604;2023-06-19T10:16:07;95263.09;;;34.99;47.11
13314;BME280;6725;48.112;11.604;2023-06-19T10:18:46;95256.97;;;35.47;45.59
13314;BME280;6725;48.112;11.604;2023-06-19T10:21:19;95258.91;;;36.07;45.45
13314;BME280;6725;48.112;11.604;2023-06-19T10:27:07;95264.94;;;36.58;44.51
13314;BME280;6725;48.112;11.604;2023-06-19T10:29:41;95257.53;;;37.36;41.91
13314;BME280;6725;48.112;11.604;2023-06-19T10:32:07;95255.69;;;36.82;43.15
13314;BME280;6725;48.112;11.604;2023-06-19T10:34:36;95261.69;;;36.22;45.83
13314;BME280;6725;48.112;11.604;2023-06-19T10:37:02;95262.44;;;36.94;44.10
13314;BME280;6725;48.112;11.604;2023-06-19T10:39:27;95262.41;;;37.26;42.19
13314;BME280;6725;48.112;11.604;2023-06-19T10:41:53;95261.25;;;36.40;43.75
13314;BME280;6725;48.112;11.604;2023-06-19T10:44:18;95252.44;;;34.62;48.81
13314;BME280;6725;48.112;11.604;2023-06-19T10:46:43;95251.16;;;34.20;50.99
13314;BME280;6725;48.112;11.604;2023-06-19T10:49:10;95243.56;;;35.18;48.13
13314;BME280;6725;48.112;11.604;2023-06-19T10:51:37;95243.78;;;34.97;49.02
13314;BME280;6725;48.112;11.604;2023-06-19T10:54:03;95240.38;;;35.98;46.40
13314;BME280;6725;48.112;11.604;2023-06-19T10:56:29;95247.66;;;35.77;46.48
13314;BME280;6725;48.112;11.604;2023-06-19T10:59:02;95242.41;;;36.13;45.36
13314;BME280;6725;48.112;11.604;2023-06-19T11:01:47;95236.25;;;37.13;43.04
13314;BME280;6725;48.112;11.604;2023-06-19T11:04:15;95238.69;;;36.67;42.44
13314;BME280;6725;48.112;11.604;2023-06-19T11:06:42;95242.25;;;36.43;43.22
13314;BME280;6725;48.112;11.604;2023-06-19T11:09:10;95224.41;;;35.48;46.09
13314;BME280;6725;48.112;11.604;2023-06-19T11:11:41;95225.91;;;35.49;45.95
13314;BME280;6725;48.112;11.604;2023-06-19T11:14:08;95229.59;;;36.61;43.73
13314;BME280;6725;48.112;11.604;2023-06-19T11:16:34;95213.94;;;37.26;41.38
13314;BME280;6725;48.112;11.604;2023-06-19T11:19:02;95217.47;;;37.51;40.45
13314;BME280;6725;48.112;11.604;2023-06-19T11:21:36;95217.63;;;36.95;41.78
13314;BME280;6725;48.112;11.604;2023-06-19T11:24:10;95209.59;;;37.76;39.31
13314;BME280;6725;48.112;11.604;2023-06-19T11:26:41;95206.72;;;37.93;37.80
13314;BME280;6725;48.112;11.604;2023-06-19T11:29:15;95208.13;;;37.34;39.52
13314;BME280;6725;48.112;11.604;2023-06-19T11:31:41;95207.91;;;36.09;41.03
13314;BME280;6725;48.112;11.604;2023-06-19T11:34:06;95213.88;;;36.28;41.98
13314;BME280;6725;48.112;11.604;2023-06-19T11:36:32;95206.59;;;36.42;41.40
13314;BME280;6725;48.112;11.604;2023-06-19T11:38:58;95204.13;;;36.63;41.40
13314;BME280;6725;48.112;11.604;2023-06-19T11:41:28;95202.25;;;35.24;44.68
13314;BME280;6725;48.112;11.604;2023-06-19T11:44:02;95191.63;;;33.69;50.17
13314;BME280;6725;48.112;11.604;2023-06-19T11:46:29;95189.69;;;32.52;53.24
13314;BME280;6725;48.112;11.604;2023-06-19T11:48:56;95193.03;;;33.19;53.38
13314;BME280;6725;48.112;11.604;2023-06-19T11:51:31;95193.44;;;32.13;55.69
13314;BME280;6725;48.112;11.604;2023-06-19T11:53:57;95194.72;;;31.32;60.56
13314;BME280;6725;48.112;11.604;2023-06-19T11:56:22;95195.34;;;30.99;62.39
13314;BME280;6725;48.112;11.604;2023-06-19T11:58:47;95207.59;;;30.88;62.17
13314;BME280;6725;48.112;11.604;2023-06-19T12:01:13;95196.81;;;30.29;66.18
13314;BME280;6725;48.112;11.604;2023-06-19T12:03:38;95195.59;;;30.25;67.54
13314;BME280;6725;48.112;11.604;2023-06-19T12:06:04;95195.97;;;29.66;70.34
13314;BME280;6725;48.112;11.604;2023-06-19T12:08:29;95193.19;;;29.23;74.29
13314;BME280;6725;48.112;11.604;2023-06-19T12:10:55;95193.22;;;29.60;73.61
13314;BME280;6725;48.112;11.604;2023-06-19T12:13:20;95192.34;;;29.71;74.71
13314;BME280;6725;48.112;11.604;2023-06-19T12:15:45;95189.84;;;30.17;71.78
13314;BME280;6725;48.112;11.604;2023-06-19T12:18:11;95183.69;;;30.32;68.91
13314;BME280;6725;48.112;11.604;2023-06-19T12:20:37;95192.00;;;29.93;71.61
13314;BME280;6725;48.112;11.604;2023-06-19T12:23:02;95182.59;;;29.72;74.62
13314;BME280;6725;48.112;11.604;2023-06-19T12:25:28;95186.81;;;29.97;71.43
13314;BME280;6725;48.112;11.604;2023-06-19T12:27:53;95188.94;;;29.91;73.45
13314;BME280;6725;48.112;11.604;2023-06-19T12:30:19;95193.34;;;29.49;72.81
13314;BME280;6725;48.112;11.604;2023-06-19T12:32:44;95177.03;;;29.66;72.68
13314;BME280;6725;48.112;11.604;2023-06-19T12:35:10;95173.19;;;29.82;71.19
13314;BME280;6725;48.112;11.604;2023-06-19T12:37:35;95169.91;;;29.97;70.90
13314;BME280;6725;48.112;11.604;2023-06-19T12:40:00;95171.47;;;29.61;71.45
13314;BME280;6725;48.112;11.604;2023-06-19T12:42:26;95165.69;;;29.72;71.11
13314;BME280;6725;48.112;11.604;2023-06-19T12:44:51;95162.50;;;29.62;71.57
13314;BME280;6725;48.112;11.604;2023-06-19T12:47:16;95168.00;;;30.05;69.74
13314;BME280;6725;48.112;11.604;2023-06-19T12:49:43;95161.38;;;30.02;69.50
13314;BME280;6725;48.112;11.604;2023-06-19T12:52:08;95160.75;;;30.09;69.75
13314;BME280;6725;48.112;11.604;2023-06-19T12:54:34;95163.06;;;29.55;70.68
13314;BME280;6725;48.112;11.604;2023-06-19T12:57:00;95150.75;;;29.58;70.63
13314;BME280;6725;48.112;11.604;2023-06-19T12:59:26;95159.38;;;29.66;71.09
13314;BME280;6725;48.112;11.604;2023-06-19T13:01:51;95156.38;;;29.77;71.22
13314;BME280;6725;48.112;11.604;2023-06-19T13:04:17;95156.97;;;29.88;70.13
13314;BME280;6725;48.112;11.604;2023-06-19T13:06:42;95148.38;;;30.12;67.89
13314;BME280;6725;48.112;11.604;2023-06-19T13:09:08;95156.47;;;30.21;65.87
13314;BME280;6725;48.112;11.604;2023-06-19T13:11:33;95154.88;;;30.26;67.49
13314;BME280;6725;48.112;11.604;2023-06-19T13:14:00;95147.66;;;29.93;67.97
13314;BME280;6725;48.112;11.604;2023-06-19T13:16:25;95146.09;;;30.11;67.59
13314;BME280;6725;48.112;11.604;2023-06-19T13:18:51;95145.22;;;30.34;65.75
13314;BME280;6725;48.112;11.604;2023-06-19T13:21:17;95150.28;;;29.91;67.17
13314;BME280;6725;48.112;11.604;2023-06-19T13:23:42;95141.66;;;30.34;66.24
13314;BME280;6725;48.112;11.604;2023-06-19T13:26:07;95142.16;;;30.19;65.93
13314;BME280;6725;48.112;11.604;2023-06-19T13:28:33;95130.56;;;29.91;67.92
13314;BME280;6725;48.112;11.604;2023-06-19T13:30:58;95141.41;;;30.19;66.70
13314;BME280;6725;48.112;11.604;2023-06-19T13:33:25;95138.72;;;29.58;68.80
13314;BME280;6725;48.112;11.604;2023-06-19T13:35:51;95132.88;;;30.06;68.83
13314;BME280;6725;48.112;11.604;2023-06-19T13:38:16;95136.91;;;29.60;68.58
13314;BME280;6725;48.112;11.604;2023-06-19T13:40:42;95128.97;;;29.77;69.06
13314;BME280;6725;48.112;11.604;2023-06-19T13:43:08;95129.28;;;29.74;70.11
13314;BME280;6725;48.112;11.604;2023-06-19T13:45:33;95129.97;;;29.61;68.23
13314;BME280;6725;48.112;11.604;2023-06-19T13:48:00;95137.19;;;29.57;69.03
13314;BME280;6725;48.112;11.604;2023-06-19T13:50:26;95124.56;;;29.45;69.73
13314;BME280;6725;48.112;11.604;2023-06-19T13:52:51;95127.72;;;29.60;69.36
13314;BME280;6725;48.112;11.604;2023-06-19T13:55:16;95123.47;;;29.85;67.78
13314;BME280;6725;48.112;11.604;2023-06-19T13:57:44;95115.00;;;29.72;67.58
13314;BME280;6725;48.112;11.604;2023-06-19T14:00:10;95107.25;;;29.59;69.10
13314;BME280;6725;48.112;11.604;2023-06-19T14:02:37;95114.00;;;29.32;70.01